sensor_id;sensor_type;location;lat;lon;timestamp;P1;durP1;ratioP1;P2;durP2;ratioP2
8183;SDS011;4133;48.752;9.088;2022-09-27T00:00:29;0.63;;;0.63;;
8183;SDS011;4133;48.752;9.088;2022-09-27T00:02:55;1.30;;;0.90;;
8183;SDS011;4133;48.752;9.088;2022-09-27T00:05:22;1.00;;;0.90;;
8183;SDS011;4133;48.752;9.088;2022-09-27T00:07:48;0.50;;;0.50;;
8183;SDS011;4133;48.752;9.088;2022-09-27T00:10:14;1.37;;;0.60;;
8183;SDS011;4133;48.752;9.088;2022-09-27T00:12:43;0.97;;;0.97;;
8183;SDS011;4133;48.752;9.088;2022-09-27T00:15:09;0.70;;;0.70;;
8183;SDS011;4133;48.752;9.088;2022-09-27T00:17:36;0.57;;;0.57;;
8183;SDS011;4133;48.752;9.088;2022-09-27T00:20:02;1.90;;;0.70;;
8183;SDS011;4133;48.752;9.088;2022-09-27T00:22:28;0.90;;;0.90;;
8183;SDS011;4133;48.752;9.088;2022-09-27T00:24:55;1.03;;;0.67;;
8183;SDS011;4133;48.752;9.088;2022-09-27T00:27:21;0.63;;;0.63;;
8183;SDS011;4133;48.752;9.088;2022-09-27T00:29:47;1.50;;;0.70;;
8183;SDS011;4133;48.752;9.088;2022-09-27T00:32:13;0.70;;;0.70;;
8183;SDS011;4133;48.752;9.088;2022-09-27T00:34:39;1.53;;;0.70;;
8183;SDS011;4133;48.752;9.088;2022-09-27T00:37:06;0.70;;;0.70;;
8183;SDS011;4133;48.752;9.088;2022-09-27T00:39:32;0.70;;;0.70;;
8183;SDS011;4133;48.752;9.088;2022-09-27T00:42:17;1.67;;;1.17;;
8183;SDS011;4133;48.752;9.088;2022-09-27T00:44:51;2.23;;;1.00;;
8183;SDS011;4133;48.752;9.088;2022-09-27T00:52:16;0.70;;;0.70;;
8183;SDS011;4133;48.752;9.088;2022-09-27T00:54:47;1.20;;;0.70;;
8183;SDS011;4133;48.752;9.088;2022-09-27T00:57:15;1.97;;;0.80;;
8183;SDS011;4133;48.752;9.088;2022-09-27T00:59:45;1.60;;;0.80;;
8183;SDS011;4133;48.752;9.088;2022-09-27T01:02:12;0.70;;;0.70;;
8183;SDS011;4133;48.752;9.088;2022-09-27T01:04:38;0.70;;;0.70;;
8183;SDS011;4133;48.752;9.088;2022-09-27T01:07:05;1.17;;;0.60;;
8183;SDS011;4133;48.752;9.088;2022-09-27T01:09:31;7.43;;;1.27;;
8183;SDS011;4133;48.752;9.088;2022-09-27T01:30:14;0.93;;;0.80;;
8183;SDS011;4133;48.752;9.088;2022-09-27T01:32:47;2.03;;;0.70;;
8183;SDS011;4133;48.752;9.088;2022-09-27T01:35:18;0.63;;;0.63;;
8183;SDS011;4133;48.752;9.088;2022-09-27T01:38:00;1.90;;;0.80;;
8183;SDS011;4133;48.752;9.088;2022-09-27T01:49:09;0.60;;;0.60;;
8183;SDS011;4133;48.752;9.088;2022-09-27T01:53:36;0.60;;;0.60;;
8183;SDS011;4133;48.752;9.088;2022-09-27T01:56:03;2.73;;;0.50;;
8183;SDS011;4133;48.752;9.088;2022-09-27T02:01:33;0.53;;;0.53;;
8183;SDS011;4133;48.752;9.088;2022-09-27T02:03:59;0.57;;;0.57;;
8183;SDS011;4133;48.752;9.088;2022-09-27T02:06:39;0.63;;;0.63;;
8183;SDS011;4133;48.752;9.088;2022-09-27T02:09:11;0.50;;;0.50;;
8183;SDS011;4133;48.752;9.088;2022-09-27T02:11:38;1.23;;;0.57;;
8183;SDS011;4133;48.752;9.088;2022-09-27T02:21:30;0.90;;;0.70;;
8183;SDS011;4133;48.752;9.088;2022-09-27T02:23:59;1.37;;;0.70;;
8183;SDS011;4133;48.752;9.088;2022-09-27T02:26:40;1.73;;;0.63;;
8183;SDS011;4133;48.752;9.088;2022-09-27T02:31:34;0.70;;;0.70;;
8183;SDS011;4133;48.752;9.088;2022-09-27T02:34:02;2.37;;;0.60;;
8183;SDS011;4133;48.752;9.088;2022-09-27T02:36:29;1.63;;;0.50;;
8183;SDS011;4133;48.752;9.088;2022-09-27T02:38:55;1.47;;;0.60;;
8183;SDS011;4133;48.752;9.088;2022-09-27T02:41:40;0.67;;;0.67;;
8183;SDS011;4133;48.752;9.088;2022-09-27T02:44:07;0.63;;;0.40;;
8183;SDS011;4133;48.752;9.088;2022-09-27T02:51:43;1.87;;;0.40;;
8183;SDS011;4133;48.752;9.088;2022-09-27T02:59:32;0.47;;;0.30;;
8183;SDS011;4133;48.752;9.088;2022-09-27T03:04:39;0.67;;;0.60;;
8183;SDS011;4133;48.752;9.088;2022-09-27T03:07:08;2.40;;;0.60;;
8183;SDS011;4133;48.752;9.088;2022-09-27T03:09:44;0.63;;;0.50;;
8183;SDS011;4133;48.752;9.088;2022-09-27T03:12:12;1.37;;;0.50;;
8183;SDS011;4133;48.752;9.088;2022-09-27T03:14:38;0.60;;;0.40;;
8183;SDS011;4133;48.752;9.088;2022-09-27T03:17:04;1.37;;;0.63;;
8183;SDS011;4133;48.752;9.088;2022-09-27T03:19:30;1.40;;;0.50;;
8183;SDS011;4133;48.752;9.088;2022-09-27T03:21:56;2.13;;;0.70;;
8183;SDS011;4133;48.752;9.088;2022-09-27T03:24:22;4.20;;;0.80;;
8183;SDS011;4133;48.752;9.088;2022-09-27T03:26:51;1.70;;;0.60;;
8183;SDS011;4133;48.752;9.088;2022-09-27T03:29:17;1.53;;;0.80;;
8183;SDS011;4133;48.752;9.088;2022-09-27T03:31:43;1.13;;;0.70;;
8183;SDS011;4133;48.752;9.088;2022-09-27T03:34:09;0.50;;;0.50;;
8183;SDS011;4133;48.752;9.088;2022-09-27T03:36:35;1.40;;;0.70;;
8183;SDS011;4133;48.752;9.088;2022-09-27T03:39:01;0.60;;;0.60;;
8183;SDS011;4133;48.752;9.088;2022-09-27T03:41:41;1.40;;;0.70;;
8183;SDS011;4133;48.752;9.088;2022-09-27T03:44:07;2.73;;;0.70;;
8183;SDS011;4133;48.752;9.088;2022-09-27T03:46:33;1.97;;;0.73;;
8183;SDS011;4133;48.752;9.088;2022-09-27T03:48:59;4.20;;;1.00;;
8183;SDS011;4133;48.752;9.088;2022-09-27T03:51:25;1.77;;;1.00;;
8183;SDS011;4133;48.752;9.088;2022-09-27T03:53:51;1.43;;;0.87;;
8183;SDS011;4133;48.752;9.088;2022-09-27T03:56:18;1.50;;;1.00;;
8183;SDS011;4133;48.752;9.088;2022-09-27T03:58:44;2.80;;;1.13;;
8183;SDS011;4133;48.752;9.088;2022-09-27T04:01:10;2.73;;;1.00;;
8183;SDS011;4133;48.752;9.088;2022-09-27T04:03:36;1.90;;;1.07;;
8183;SDS011;4133;48.752;9.088;2022-09-27T04:06:02;3.03;;;1.10;;
8183;SDS011;4133;48.752;9.088;2022-09-27T04:08:28;5.17;;;1.40;;
8183;SDS011;4133;48.752;9.088;2022-09-27T04:10:55;3.30;;;1.40;;
8183;SDS011;4133;48.752;9.088;2022-09-27T04:13:21;3.43;;;1.20;;
8183;SDS011;4133;48.752;9.088;2022-09-27T04:15:47;6.10;;;1.40;;
8183;SDS011;4133;48.752;9.088;2022-09-27T04:18:13;7.60;;;1.30;;
8183;SDS011;4133;48.752;9.088;2022-09-27T04:20:39;5.27;;;1.63;;
8183;SDS011;4133;48.752;9.088;2022-09-27T04:23:05;2.80;;;1.50;;
8183;SDS011;4133;48.752;9.088;2022-09-27T04:25:31;3.20;;;1.40;;
8183;SDS011;4133;48.752;9.088;2022-09-27T04:27:58;6.10;;;1.50;;
8183;SDS011;4133;48.752;9.088;2022-09-27T04:30:25;4.97;;;1.30;;
8183;SDS011;4133;48.752;9.088;2022-09-27T04:32:51;6.43;;;2.03;;
8183;SDS011;4133;48.752;9.088;2022-09-27T04:35:17;6.33;;;1.70;;
8183;SDS011;4133;48.752;9.088;2022-09-27T04:38:02;2.50;;;1.37;;
8183;SDS011;4133;48.752;9.088;2022-09-27T04:40:28;4.70;;;1.53;;
8183;SDS011;4133;48.752;9.088;2022-09-27T04:45:24;5.23;;;1.40;;
8183;SDS011;4133;48.752;9.088;2022-09-27T04:47:50;4.13;;;1.53;;
8183;SDS011;4133;48.752;9.088;2022-09-27T04:50:16;4.90;;;1.33;;
8183;SDS011;4133;48.752;9.088;2022-09-27T04:52:44;2.50;;;1.13;;
8183;SDS011;4133;48.752;9.088;2022-09-27T04:55:14;5.47;;;1.90;;
8183;SDS011;4133;48.752;9.088;2022-09-27T04:57:40;6.77;;;1.63;;
8183;SDS011;4133;48.752;9.088;2022-09-27T05:00:06;5.33;;;1.23;;
8183;SDS011;4133;48.752;9.088;2022-09-27T05:02:32;6.53;;;1.40;;
8183;SDS011;4133;48.752;9.088;2022-09-27T05:04:58;2.90;;;1.20;;
8183;SDS011;4133;48.752;9.088;2022-09-27T05:07:25;2.60;;;1.33;;
8183;SDS011;4133;48.752;9.088;2022-09-27T05:09:51;1.57;;;0.93;;
8183;SDS011;4133;48.752;9.088;2022-09-27T05:12:18;3.03;;;1.20;;
8183;SDS011;4133;48.752;9.088;2022-09-27T05:14:44;4.07;;;1.50;;
8183;SDS011;4133;48.752;9.088;2022-09-27T05:17:10;2.53;;;1.23;;
8183;SDS011;4133;48.752;9.088;2022-09-27T05:19:36;3.87;;;1.20;;
8183;SDS011;4133;48.752;9.088;2022-09-27T05:22:04;3.80;;;1.13;;
8183;SDS011;4133;48.752;9.088;2022-09-27T05:24:30;5.57;;;1.40;;
8183;SDS011;4133;48.752;9.088;2022-09-27T05:26:57;3.13;;;1.50;;
8183;SDS011;4133;48.752;9.088;2022-09-27T05:29:23;1.60;;;1.00;;
8183;SDS011;4133;48.752;9.088;2022-09-27T05:31:49;2.63;;;1.13;;
8183;SDS011;4133;48.752;9.088;2022-09-27T05:34:15;5.57;;;1.43;;
8183;SDS011;4133;48.752;9.088;2022-09-27T05:36:45;2.07;;;1.20;;
8183;SDS011;4133;48.752;9.088;2022-09-27T05:39:11;1.67;;;1.10;;
8183;SDS011;4133;48.752;9.088;2022-09-27T05:44:41;3.47;;;1.33;;
8183;SDS011;4133;48.752;9.088;2022-09-27T05:47:11;3.17;;;1.30;;
8183;SDS011;4133;48.752;9.088;2022-09-27T05:49:37;3.23;;;1.10;;
8183;SDS011;4133;48.752;9.088;2022-09-27T05:52:06;1.67;;;1.07;;
8183;SDS011;4133;48.752;9.088;2022-09-27T05:54:35;1.07;;;0.97;;
8183;SDS011;4133;48.752;9.088;2022-09-27T05:57:02;2.37;;;1.00;;
8183;SDS011;4133;48.752;9.088;2022-09-27T05:59:28;2.90;;;1.10;;
8183;SDS011;4133;48.752;9.088;2022-09-27T06:01:54;1.73;;;1.03;;
8183;SDS011;4133;48.752;9.088;2022-09-27T06:04:20;2.57;;;1.20;;
8183;SDS011;4133;48.752;9.088;2022-09-27T06:06:46;2.43;;;1.03;;
8183;SDS011;4133;48.752;9.088;2022-09-27T06:09:15;6.00;;;1.13;;
8183;SDS011;4133;48.752;9.088;2022-09-27T06:11:41;1.90;;;1.40;;
8183;SDS011;4133;48.752;9.088;2022-09-27T06:14:11;1.87;;;1.10;;
8183;SDS011;4133;48.752;9.088;2022-09-27T06:16:38;4.27;;;1.40;;
8183;SDS011;4133;48.752;9.088;2022-09-27T06:19:04;3.60;;;1.50;;
8183;SDS011;4133;48.752;9.088;2022-09-27T06:21:30;1.23;;;1.13;;
8183;SDS011;4133;48.752;9.088;2022-09-27T06:23:56;1.63;;;1.00;;
8183;SDS011;4133;48.752;9.088;2022-09-27T06:26:24;2.80;;;1.00;;
8183;SDS011;4133;48.752;9.088;2022-09-27T06:28:53;2.80;;;0.70;;
8183;SDS011;4133;48.752;9.088;2022-09-27T06:31:20;2.47;;;0.90;;
8183;SDS011;4133;48.752;9.088;2022-09-27T06:33:47;1.30;;;0.80;;
8183;SDS011;4133;48.752;9.088;2022-09-27T06:36:13;1.90;;;0.80;;
8183;SDS011;4133;48.752;9.088;2022-09-27T06:38:39;3.87;;;1.63;;
8183;SDS011;4133;48.752;9.088;2022-09-27T06:41:08;1.50;;;1.40;;
8183;SDS011;4133;48.752;9.088;2022-09-27T06:43:34;0.93;;;0.70;;
8183;SDS011;4133;48.752;9.088;2022-09-27T06:46:01;3.00;;;0.87;;
8183;SDS011;4133;48.752;9.088;2022-09-27T06:48:30;2.23;;;0.80;;
8183;SDS011;4133;48.752;9.088;2022-09-27T06:50:56;1.80;;;0.60;;
8183;SDS011;4133;48.752;9.088;2022-09-27T06:53:22;0.53;;;0.50;;
8183;SDS011;4133;48.752;9.088;2022-09-27T06:55:49;1.40;;;0.70;;
8183;SDS011;4133;48.752;9.088;2022-09-27T06:58:18;0.60;;;0.60;;
8183;SDS011;4133;48.752;9.088;2022-09-27T07:01:07;0.60;;;0.60;;
8183;SDS011;4133;48.752;9.088;2022-09-27T07:03:34;3.73;;;0.73;;
8183;SDS011;4133;48.752;9.088;2022-09-27T07:06:04;1.80;;;0.67;;
8183;SDS011;4133;48.752;9.088;2022-09-27T07:08:30;1.23;;;0.70;;
8183;SDS011;4133;48.752;9.088;2022-09-27T07:11:02;0.63;;;0.63;;
8183;SDS011;4133;48.752;9.088;2022-09-27T07:13:29;0.83;;;0.50;;
8183;SDS011;4133;48.752;9.088;2022-09-27T07:15:58;0.57;;;0.40;;
8183;SDS011;4133;48.752;9.088;2022-09-27T07:18:25;4.97;;;0.90;;
8183;SDS011;4133;48.752;9.088;2022-09-27T07:20:51;0.60;;;0.40;;
8183;SDS011;4133;48.752;9.088;2022-09-27T07:23:18;3.00;;;0.53;;
8183;SDS011;4133;48.752;9.088;2022-09-27T07:25:44;0.80;;;0.60;;
8183;SDS011;4133;48.752;9.088;2022-09-27T07:28:15;0.63;;;0.60;;
8183;SDS011;4133;48.752;9.088;2022-09-27T07:30:41;1.17;;;0.40;;
8183;SDS011;4133;48.752;9.088;2022-09-27T07:33:07;0.43;;;0.40;;
8183;SDS011;4133;48.752;9.088;2022-09-27T07:35:34;0.77;;;0.50;;
8183;SDS011;4133;48.752;9.088;2022-09-27T07:38:04;0.50;;;0.50;;
8183;SDS011;4133;48.752;9.088;2022-09-27T07:40:35;0.77;;;0.53;;
8183;SDS011;4133;48.752;9.088;2022-09-27T07:43:10;1.37;;;0.40;;
8183;SDS011;4133;48.752;9.088;2022-09-27T07:45:43;0.30;;;0.30;;
8183;SDS011;4133;48.752;9.088;2022-09-27T07:48:11;0.43;;;0.30;;
8183;SDS011;4133;48.752;9.088;2022-09-27T07:50:38;0.43;;;0.37;;
8183;SDS011;4133;48.752;9.088;2022-09-27T07:53:04;0.57;;;0.47;;
8183;SDS011;4133;48.752;9.088;2022-09-27T07:55:30;1.73;;;0.53;;
8183;SDS011;4133;48.752;9.088;2022-09-27T07:58:06;0.40;;;0.40;;
8183;SDS011;4133;48.752;9.088;2022-09-27T08:00:33;0.50;;;0.50;;
8183;SDS011;4133;48.752;9.088;2022-09-27T08:03:03;0.60;;;0.60;;
8183;SDS011;4133;48.752;9.088;2022-09-27T08:05:30;0.43;;;0.43;;
8183;SDS011;4133;48.752;9.088;2022-09-27T08:07:56;0.77;;;0.50;;
8183;SDS011;4133;48.752;9.088;2022-09-27T08:10:21;0.90;;;0.50;;
8183;SDS011;4133;48.752;9.088;2022-09-27T08:12:51;0.53;;;0.50;;
8183;SDS011;4133;48.752;9.088;2022-09-27T08:15:17;0.87;;;0.60;;
8183;SDS011;4133;48.752;9.088;2022-09-27T08:17:43;0.60;;;0.60;;
8183;SDS011;4133;48.752;9.088;2022-09-27T08:20:09;0.50;;;0.50;;
8183;SDS011;4133;48.752;9.088;2022-09-27T08:22:39;0.53;;;0.53;;
8183;SDS011;4133;48.752;9.088;2022-09-27T08:25:05;0.70;;;0.60;;
8183;SDS011;4133;48.752;9.088;2022-09-27T08:27:34;1.23;;;0.70;;
8183;SDS011;4133;48.752;9.088;2022-09-27T08:30:00;0.30;;;0.30;;
8183;SDS011;4133;48.752;9.088;2022-09-27T08:32:27;0.73;;;0.57;;
8183;SDS011;4133;48.752;9.088;2022-09-27T08:34:54;0.60;;;0.50;;
8183;SDS011;4133;48.752;9.088;2022-09-27T08:37:20;0.60;;;0.50;;
8183;SDS011;4133;48.752;9.088;2022-09-27T08:39:48;1.23;;;0.50;;
8183;SDS011;4133;48.752;9.088;2022-09-27T08:42:21;0.60;;;0.60;;
8183;SDS011;4133;48.752;9.088;2022-09-27T08:47:23;1.80;;;0.67;;
8183;SDS011;4133;48.752;9.088;2022-09-27T08:52:20;1.73;;;0.70;;
8183;SDS011;4133;48.752;9.088;2022-09-27T08:54:48;0.50;;;0.50;;
8183;SDS011;4133;48.752;9.088;2022-09-27T08:57:15;0.77;;;0.77;;
8183;SDS011;4133;48.752;9.088;2022-09-27T08:59:59;0.50;;;0.50;;
8183;SDS011;4133;48.752;9.088;2022-09-27T09:02:26;0.47;;;0.30;;
8183;SDS011;4133;48.752;9.088;2022-09-27T09:04:56;1.57;;;0.50;;
8183;SDS011;4133;48.752;9.088;2022-09-27T09:45:58;1.63;;;0.80;;
8183;SDS011;4133;48.752;9.088;2022-09-27T09:48:32;2.20;;;0.80;;
8183;SDS011;4133;48.752;9.088;2022-09-27T09:51:01;1.40;;;1.00;;
8183;SDS011;4133;48.752;9.088;2022-09-27T09:56:22;2.33;;;0.70;;
8183;SDS011;4133;48.752;9.088;2022-09-27T09:58:50;1.43;;;0.70;;
8183;SDS011;4133;48.752;9.088;2022-09-27T10:03:54;1.63;;;0.90;;
8183;SDS011;4133;48.752;9.088;2022-09-27T10:06:21;1.60;;;0.90;;
8183;SDS011;4133;48.752;9.088;2022-09-27T10:08:48;2.37;;;0.90;;
8183;SDS011;4133;48.752;9.088;2022-09-27T10:11:20;1.10;;;0.80;;
8183;SDS011;4133;48.752;9.088;2022-09-27T10:13:47;2.47;;;1.07;;
8183;SDS011;4133;48.752;9.088;2022-09-27T10:16:14;1.10;;;0.70;;
8183;SDS011;4133;48.752;9.088;2022-09-27T10:18:43;1.40;;;0.90;;
8183;SDS011;4133;48.752;9.088;2022-09-27T10:21:29;1.00;;;0.60;;
8183;SDS011;4133;48.752;9.088;2022-09-27T10:24:02;1.50;;;0.73;;
8183;SDS011;4133;48.752;9.088;2022-09-27T10:26:29;0.83;;;0.77;;
8183;SDS011;4133;48.752;9.088;2022-09-27T10:28:55;0.67;;;0.67;;
8183;SDS011;4133;48.752;9.088;2022-09-27T10:31:22;1.33;;;0.77;;
8183;SDS011;4133;48.752;9.088;2022-09-27T10:33:55;4.67;;;0.97;;
8183;SDS011;4133;48.752;9.088;2022-09-27T10:36:30;1.33;;;0.67;;
8183;SDS011;4133;48.752;9.088;2022-09-27T10:38:57;1.40;;;0.80;;
8183;SDS011;4133;48.752;9.088;2022-09-27T10:41:34;1.73;;;1.23;;
8183;SDS011;4133;48.752;9.088;2022-09-27T10:44:34;2.53;;;0.80;;
8183;SDS011;4133;48.752;9.088;2022-09-27T10:47:04;0.50;;;0.50;;
8183;SDS011;4133;48.752;9.088;2022-09-27T10:49:32;1.67;;;0.80;;
8183;SDS011;4133;48.752;9.088;2022-09-27T10:51:59;1.27;;;0.70;;
8183;SDS011;4133;48.752;9.088;2022-09-27T10:54:36;1.23;;;0.70;;
8183;SDS011;4133;48.752;9.088;2022-09-27T10:57:03;1.40;;;0.77;;
8183;SDS011;4133;48.752;9.088;2022-09-27T10:59:32;1.33;;;0.60;;
8183;SDS011;4133;48.752;9.088;2022-09-27T11:01:59;2.03;;;0.60;;
8183;SDS011;4133;48.752;9.088;2022-09-27T11:04:29;3.20;;;0.70;;
8183;SDS011;4133;48.752;9.088;2022-09-27T11:09:57;0.50;;;0.50;;
8183;SDS011;4133;48.752;9.088;2022-09-27T11:12:27;2.17;;;0.70;;
8183;SDS011;4133;48.752;9.088;2022-09-27T11:15:02;4.03;;;0.50;;
8183;SDS011;4133;48.752;9.088;2022-09-27T11:17:46;0.93;;;0.50;;
8183;SDS011;4133;48.752;9.088;2022-09-27T11:20:30;0.67;;;0.50;;
8183;SDS011;4133;48.752;9.088;2022-09-27T11:36:04;1.23;;;0.70;;
8183;SDS011;4133;48.752;9.088;2022-09-27T11:41:26;0.63;;;0.37;;
8183;SDS011;4133;48.752;9.088;2022-09-27T11:46:45;0.87;;;0.50;;
8183;SDS011;4133;48.752;9.088;2022-09-27T11:54:41;1.20;;;0.33;;
8183;SDS011;4133;48.752;9.088;2022-09-27T11:57:17;1.13;;;0.30;;
8183;SDS011;4133;48.752;9.088;2022-09-27T11:59:57;0.50;;;0.40;;
8183;SDS011;4133;48.752;9.088;2022-09-27T12:07:41;1.00;;;0.50;;
8183;SDS011;4133;48.752;9.088;2022-09-27T12:10:12;0.53;;;0.50;;
8183;SDS011;4133;48.752;9.088;2022-09-27T12:12:42;2.10;;;0.90;;
8183;SDS011;4133;48.752;9.088;2022-09-27T12:15:13;0.63;;;0.50;;
8183;SDS011;4133;48.752;9.088;2022-09-27T12:17:42;1.73;;;0.60;;
8183;SDS011;4133;48.752;9.088;2022-09-27T12:20:22;0.30;;;0.30;;
8183;SDS011;4133;48.752;9.088;2022-09-27T12:25:18;1.50;;;0.50;;
8183;SDS011;4133;48.752;9.088;2022-09-27T12:27:55;0.73;;;0.47;;
8183;SDS011;4133;48.752;9.088;2022-09-27T12:30:23;0.87;;;0.47;;
8183;SDS011;4133;48.752;9.088;2022-09-27T12:35:35;0.37;;;0.30;;
8183;SDS011;4133;48.752;9.088;2022-09-27T12:38:12;0.40;;;0.30;;
8183;SDS011;4133;48.752;9.088;2022-09-27T12:40:40;1.17;;;0.43;;
8183;SDS011;4133;48.752;9.088;2022-09-27T12:43:16;1.70;;;0.40;;
8183;SDS011;4133;48.752;9.088;2022-09-27T12:45:47;2.60;;;0.50;;
8183;SDS011;4133;48.752;9.088;2022-09-27T12:48:28;1.80;;;0.40;;
8183;SDS011;4133;48.752;9.088;2022-09-27T12:51:02;0.23;;;0.23;;
8183;SDS011;4133;48.752;9.088;2022-09-27T12:53:39;0.87;;;0.40;;
8183;SDS011;4133;48.752;9.088;2022-09-27T12:58:42;1.50;;;0.40;;
8183;SDS011;4133;48.752;9.088;2022-09-27T13:11:34;0.97;;;0.43;;
8183;SDS011;4133;48.752;9.088;2022-09-27T13:14:02;0.60;;;0.40;;
8183;SDS011;4133;48.752;9.088;2022-09-27T13:16:29;0.40;;;0.40;;
8183;SDS011;4133;48.752;9.088;2022-09-27T13:26:54;1.90;;;0.50;;
8183;SDS011;4133;48.752;9.088;2022-09-27T13:29:26;0.77;;;0.40;;
8183;SDS011;4133;48.752;9.088;2022-09-27T13:34:37;0.53;;;0.43;;
8183;SDS011;4133;48.752;9.088;2022-09-27T13:39:49;1.17;;;0.60;;
8183;SDS011;4133;48.752;9.088;2022-09-27T13:42:26;1.60;;;0.60;;
8183;SDS011;4133;48.752;9.088;2022-09-27T13:45:15;0.40;;;0.40;;
8183;SDS011;4133;48.752;9.088;2022-09-27T13:47:44;0.40;;;0.40;;
8183;SDS011;4133;48.752;9.088;2022-09-27T13:52:42;0.60;;;0.40;;
8183;SDS011;4133;48.752;9.088;2022-09-27T13:57:58;0.20;;;0.20;;
8183;SDS011;4133;48.752;9.088;2022-09-27T14:00:26;2.40;;;0.77;;
8183;SDS011;4133;48.752;9.088;2022-09-27T14:05:49;0.77;;;0.40;;
8183;SDS011;4133;48.752;9.088;2022-09-27T14:10:51;1.13;;;0.40;;
8183;SDS011;4133;48.752;9.088;2022-09-27T14:13:18;0.43;;;0.40;;
8183;SDS011;4133;48.752;9.088;2022-09-27T14:15:45;0.63;;;0.50;;
8183;SDS011;4133;48.752;9.088;2022-09-27T14:18:11;1.33;;;0.40;;
8183;SDS011;4133;48.752;9.088;2022-09-27T14:20:42;1.13;;;0.50;;
8183;SDS011;4133;48.752;9.088;2022-09-27T14:23:17;0.67;;;0.30;;
8183;SDS011;4133;48.752;9.088;2022-09-27T14:25:44;0.50;;;0.50;;
8183;SDS011;4133;48.752;9.088;2022-09-27T14:28:18;1.70;;;0.40;;
8183;SDS011;4133;48.752;9.088;2022-09-27T14:30:44;1.27;;;0.60;;
8183;SDS011;4133;48.752;9.088;2022-09-27T14:33:30;0.30;;;0.30;;
8183;SDS011;4133;48.752;9.088;2022-09-27T14:35:57;0.30;;;0.30;;
8183;SDS011;4133;48.752;9.088;2022-09-27T14:38:43;1.50;;;0.40;;
8183;SDS011;4133;48.752;9.088;2022-09-27T14:41:12;0.40;;;0.40;;
8183;SDS011;4133;48.752;9.088;2022-09-27T14:43:43;0.50;;;0.50;;
8183;SDS011;4133;48.752;9.088;2022-09-27T14:46:22;0.50;;;0.50;;
8183;SDS011;4133;48.752;9.088;2022-09-27T14:48:49;1.23;;;0.50;;
8183;SDS011;4133;48.752;9.088;2022-09-27T14:51:17;1.20;;;0.60;;
8183;SDS011;4133;48.752;9.088;2022-09-27T14:53:53;1.30;;;1.20;;
8183;SDS011;4133;48.752;9.088;2022-09-27T14:56:28;2.10;;;0.53;;
8183;SDS011;4133;48.752;9.088;2022-09-27T14:59:21;1.17;;;0.40;;
8183;SDS011;4133;48.752;9.088;2022-09-27T15:01:49;5.73;;;4.10;;
8183;SDS011;4133;48.752;9.088;2022-09-27T15:04:15;2.30;;;2.10;;
8183;SDS011;4133;48.752;9.088;2022-09-27T15:06:41;0.50;;;0.50;;
8183;SDS011;4133;48.752;9.088;2022-09-27T15:09:12;0.50;;;0.50;;
8183;SDS011;4133;48.752;9.088;2022-09-27T15:11:39;1.90;;;0.77;;
8183;SDS011;4133;48.752;9.088;2022-09-27T15:14:06;1.27;;;0.70;;
8183;SDS011;4133;48.752;9.088;2022-09-27T15:16:35;1.67;;;1.40;;
8183;SDS011;4133;48.752;9.088;2022-09-27T15:19:02;0.73;;;0.73;;
8183;SDS011;4133;48.752;9.088;2022-09-27T15:21:34;0.60;;;0.60;;
8183;SDS011;4133;48.752;9.088;2022-09-27T15:24:01;0.40;;;0.40;;
8183;SDS011;4133;48.752;9.088;2022-09-27T15:26:36;0.50;;;0.50;;
8183;SDS011;4133;48.752;9.088;2022-09-27T15:29:02;1.30;;;0.30;;
8183;SDS011;4133;48.752;9.088;2022-09-27T15:31:33;0.37;;;0.37;;
8183;SDS011;4133;48.752;9.088;2022-09-27T15:33:59;0.40;;;0.40;;
8183;SDS011;4133;48.752;9.088;2022-09-27T15:39:10;0.47;;;0.47;;
8183;SDS011;4133;48.752;9.088;2022-09-27T15:44:47;1.57;;;0.60;;
8183;SDS011;4133;48.752;9.088;2022-09-27T15:52:43;0.57;;;0.57;;
8183;SDS011;4133;48.752;9.088;2022-09-27T15:55:17;1.27;;;0.50;;
8183;SDS011;4133;48.752;9.088;2022-09-27T15:57:44;0.50;;;0.50;;
8183;SDS011;4133;48.752;9.088;2022-09-27T16:00:13;1.23;;;0.73;;
8183;SDS011;4133;48.752;9.088;2022-09-27T16:02:42;1.03;;;0.70;;
8183;SDS011;4133;48.752;9.088;2022-09-27T16:05:08;0.93;;;0.70;;
8183;SDS011;4133;48.752;9.088;2022-09-27T16:07:34;0.80;;;0.80;;
8183;SDS011;4133;48.752;9.088;2022-09-27T16:10:00;1.00;;;0.80;;
8183;SDS011;4133;48.752;9.088;2022-09-27T16:12:26;2.23;;;0.80;;
8183;SDS011;4133;48.752;9.088;2022-09-27T16:14:55;0.70;;;0.70;;
8183;SDS011;4133;48.752;9.088;2022-09-27T16:17:30;1.20;;;0.50;;
8183;SDS011;4133;48.752;9.088;2022-09-27T16:19:56;3.40;;;0.60;;
8183;SDS011;4133;48.752;9.088;2022-09-27T16:22:23;2.77;;;0.70;;
8183;SDS011;4133;48.752;9.088;2022-09-27T16:24:51;0.63;;;0.50;;
8183;SDS011;4133;48.752;9.088;2022-09-27T16:27:27;2.90;;;0.57;;
8183;SDS011;4133;48.752;9.088;2022-09-27T16:29:55;1.10;;;0.60;;
8183;SDS011;4133;48.752;9.088;2022-09-27T16:35:33;1.43;;;0.60;;
8183;SDS011;4133;48.752;9.088;2022-09-27T16:37:59;2.53;;;0.77;;
8183;SDS011;4133;48.752;9.088;2022-09-27T16:40:25;0.83;;;0.60;;
8183;SDS011;4133;48.752;9.088;2022-09-27T16:42:58;1.03;;;0.73;;
8183;SDS011;4133;48.752;9.088;2022-09-27T16:45:31;0.80;;;0.50;;
8183;SDS011;4133;48.752;9.088;2022-09-27T16:47:57;0.50;;;0.50;;
8183;SDS011;4133;48.752;9.088;2022-09-27T16:50:24;0.93;;;0.50;;
8183;SDS011;4133;48.752;9.088;2022-09-27T16:53:09;0.63;;;0.30;;
8183;SDS011;4133;48.752;9.088;2022-09-27T16:55:41;1.07;;;0.67;;
8183;SDS011;4133;48.752;9.088;2022-09-27T16:58:07;1.37;;;0.80;;
8183;SDS011;4133;48.752;9.088;2022-09-27T17:00:33;1.83;;;1.00;;
8183;SDS011;4133;48.752;9.088;2022-09-27T17:02:59;1.10;;;0.70;;
8183;SDS011;4133;48.752;9.088;2022-09-27T17:05:25;1.37;;;1.00;;
8183;SDS011;4133;48.752;9.088;2022-09-27T17:07:54;2.83;;;0.70;;
8183;SDS011;4133;48.752;9.088;2022-09-27T17:10:29;1.10;;;0.60;;
8183;SDS011;4133;48.752;9.088;2022-09-27T17:12:55;1.13;;;0.60;;
8183;SDS011;4133;48.752;9.088;2022-09-27T17:15:22;1.87;;;0.80;;
8183;SDS011;4133;48.752;9.088;2022-09-27T17:17:48;0.60;;;0.60;;
8183;SDS011;4133;48.752;9.088;2022-09-27T17:20:17;3.77;;;0.67;;
8183;SDS011;4133;48.752;9.088;2022-09-27T17:22:43;1.30;;;1.00;;
8183;SDS011;4133;48.752;9.088;2022-09-27T17:25:09;1.50;;;0.60;;
8183;SDS011;4133;48.752;9.088;2022-09-27T17:27:35;1.90;;;0.77;;
8183;SDS011;4133;48.752;9.088;2022-09-27T17:30:01;1.67;;;0.80;;
8183;SDS011;4133;48.752;9.088;2022-09-27T17:32:27;2.23;;;1.30;;
8183;SDS011;4133;48.752;9.088;2022-09-27T17:34:53;2.10;;;1.43;;
8183;SDS011;4133;48.752;9.088;2022-09-27T17:37:21;8.53;;;4.97;;
8183;SDS011;4133;48.752;9.088;2022-09-27T17:39:47;3.63;;;2.40;;
8183;SDS011;4133;48.752;9.088;2022-09-27T17:45:16;1.87;;;1.40;;
8183;SDS011;4133;48.752;9.088;2022-09-27T17:47:42;2.90;;;1.30;;
8183;SDS011;4133;48.752;9.088;2022-09-27T17:50:27;1.87;;;1.00;;
8183;SDS011;4133;48.752;9.088;2022-09-27T17:52:53;2.63;;;1.13;;
8183;SDS011;4133;48.752;9.088;2022-09-27T17:55:21;1.43;;;1.03;;
8183;SDS011;4133;48.752;9.088;2022-09-27T17:57:47;4.03;;;1.93;;
8183;SDS011;4133;48.752;9.088;2022-09-27T18:00:13;2.00;;;1.33;;
8183;SDS011;4133;48.752;9.088;2022-09-27T18:02:39;1.80;;;1.20;;
8183;SDS011;4133;48.752;9.088;2022-09-27T18:05:06;1.07;;;0.97;;
8183;SDS011;4133;48.752;9.088;2022-09-27T18:07:32;1.80;;;1.10;;
8183;SDS011;4133;48.752;9.088;2022-09-27T18:10:00;1.80;;;1.23;;
8183;SDS011;4133;48.752;9.088;2022-09-27T18:12:27;1.50;;;1.30;;
8183;SDS011;4133;48.752;9.088;2022-09-27T18:14:59;2.37;;;1.57;;
8183;SDS011;4133;48.752;9.088;2022-09-27T18:17:26;4.30;;;2.43;;
8183;SDS011;4133;48.752;9.088;2022-09-27T18:19:53;4.10;;;1.80;;
8183;SDS011;4133;48.752;9.088;2022-09-27T18:22:21;1.30;;;1.20;;
8183;SDS011;4133;48.752;9.088;2022-09-27T18:24:49;2.33;;;1.33;;
8183;SDS011;4133;48.752;9.088;2022-09-27T18:27:15;2.90;;;1.53;;
8183;SDS011;4133;48.752;9.088;2022-09-27T18:29:43;2.83;;;1.50;;
8183;SDS011;4133;48.752;9.088;2022-09-27T18:32:09;3.07;;;1.70;;
8183;SDS011;4133;48.752;9.088;2022-09-27T18:34:35;2.73;;;1.40;;
8183;SDS011;4133;48.752;9.088;2022-09-27T18:37:03;2.13;;;1.53;;
8183;SDS011;4133;48.752;9.088;2022-09-27T18:39:29;1.67;;;1.30;;
8183;SDS011;4133;48.752;9.088;2022-09-27T18:44:47;2.33;;;1.70;;
8183;SDS011;4133;48.752;9.088;2022-09-27T18:47:17;5.07;;;1.80;;
8183;SDS011;4133;48.752;9.088;2022-09-27T18:49:43;4.13;;;1.97;;
8183;SDS011;4133;48.752;9.088;2022-09-27T18:52:09;2.90;;;1.80;;
8183;SDS011;4133;48.752;9.088;2022-09-27T18:54:35;7.10;;;3.20;;